createdAt,value
2022-08-07T00:00:26.921Z,23.73
2022-08-07T00:02:58.010Z,23.72
2022-08-07T00:05:26.569Z,23.72
2022-08-07T00:07:58.245Z,23.71
2022-08-07T00:10:30.992Z,23.74
2022-08-07T00:13:09.734Z,23.73
2022-08-07T00:15:51.512Z,23.72
2022-08-07T00:18:23.857Z,23.71
2022-08-07T00:21:01.395Z,23.69
2022-08-07T00:23:31.015Z,23.67
2022-08-07T00:26:06.852Z,23.65
2022-08-07T00:28:45.725Z,23.68
2022-08-07T00:31:21.398Z,23.68
2022-08-07T00:33:50.145Z,23.66
2022-08-07T00:36:17.634Z,23.65
2022-08-07T00:38:45.136Z,23.62
2022-08-07T00:41:14.976Z,23.65
2022-08-07T00:43:59.418Z,23.68
2022-08-07T00:46:33.127Z,23.69
2022-08-07T00:49:03.348Z,23.70
2022-08-07T00:51:56.895Z,23.74
2022-08-07T00:54:19.764Z,23.75
2022-08-07T00:56:49.840Z,23.74
2022-08-07T00:59:20.232Z,23.80
2022-08-07T01:02:03.004Z,23.84
2022-08-07T01:04:35.511Z,23.81
2022-08-07T01:07:11.022Z,23.87
2022-08-07T01:10:06.372Z,23.89
2022-08-07T01:12:30.221Z,23.93
2022-08-07T01:15:03.735Z,23.97
2022-08-07T01:17:33.348Z,24.01
2022-08-07T01:20:10.359Z,24.10
2022-08-07T01:23:00.858Z,24.09
2022-08-07T01:25:54.613Z,24.17
2022-08-07T01:28:23.064Z,24.16
2022-08-07T01:30:56.066Z,24.21
2022-08-07T01:33:30.162Z,24.26
2022-08-07T01:36:16.775Z,24.35
2022-08-07T01:38:46.481Z,24.45
2022-08-07T01:41:26.368Z,24.53
2022-08-07T01:43:59.305Z,24.60
2022-08-07T01:46:31.535Z,24.70
2022-08-07T01:48:59.993Z,24.81
2022-08-07T01:52:03.503Z,24.96
2022-08-07T01:54:36.392Z,25.14
2022-08-07T01:57:24.738Z,25.31
2022-08-07T02:00:13.690Z,25.48
2022-08-07T02:03:19.159Z,25.52
2022-08-07T02:06:30.768Z,25.70
2022-08-07T02:08:54.365Z,25.67
2022-08-07T02:11:30.922Z,25.71
2022-08-07T02:14:35.774Z,25.77
2022-08-07T02:17:03.735Z,25.83
2022-08-07T02:20:07.525Z,25.89
2022-08-07T02:22:25.950Z,26.00
2022-08-07T02:24:56.332Z,26.12
2022-08-07T02:27:26.442Z,26.19
2022-08-07T02:30:07.165Z,26.25
2022-08-07T02:32:39.491Z,26.30
2022-08-07T02:36:30.864Z,26.45
2022-08-07T02:38:18.291Z,26.64
2022-08-07T02:40:55.526Z,26.66
2022-08-07T02:43:24.088Z,27.09
2022-08-07T02:46:00.576Z,26.91
2022-08-07T02:48:32.592Z,27.02
2022-08-07T02:51:28.830Z,27.25
2022-08-07T02:54:03.761Z,27.49
2022-08-07T02:56:34.394Z,27.90
2022-08-07T02:59:06.226Z,28.49
2022-08-07T03:01:39.992Z,29.27
2022-08-07T03:04:14.800Z,29.85
2022-08-07T03:06:48.262Z,30.42
2022-08-07T03:09:43.233Z,31.06
2022-08-07T03:12:21.604Z,31.59
2022-08-07T03:14:56.513Z,32.01
2022-08-07T03:17:25.414Z,32.65
2022-08-07T03:19:55.786Z,33.25
2022-08-07T03:22:30.182Z,33.83
2022-08-07T03:25:00.424Z,34.27
2022-08-07T03:28:09.012Z,34.81
2022-08-07T03:30:24.290Z,35.30
2022-08-07T03:32:58.639Z,35.78
2022-08-07T03:35:43.610Z,36.23
2022-08-07T03:38:21.174Z,36.79
2022-08-07T03:40:57.622Z,37.25
2022-08-07T03:43:32.444Z,37.59
2022-08-07T03:46:03.867Z,37.97
2022-08-07T03:48:45.537Z,38.45
2022-08-07T03:51:47.941Z,38.78
2022-08-07T03:54:36.279Z,38.27
2022-08-07T03:58:34.862Z,39.52
2022-08-07T04:00:01.858Z,40.21
2022-08-07T04:02:32.523Z,40.64
2022-08-07T04:05:00.275Z,41.10
2022-08-07T04:07:36.220Z,41.46
2022-08-07T04:10:15.749Z,41.68
2022-08-07T04:12:49.524Z,41.89
2022-08-07T04:15:19.169Z,42.21
2022-08-07T04:18:57.425Z,42.44
2022-08-07T04:20:35.440Z,42.83
2022-08-07T04:23:06.210Z,43.15
2022-08-07T04:25:40.968Z,43.55
2022-08-07T04:28:13.303Z,43.91
2022-08-07T04:30:55.101Z,44.06
2022-08-07T04:33:29.066Z,44.35
2022-08-07T04:35:58.877Z,44.67
2022-08-07T04:38:29.307Z,44.99
2022-08-07T04:40:58.722Z,45.41
2022-08-07T04:44:10.604Z,45.42
2022-08-07T04:47:04.338Z,45.61
2022-08-07T04:49:57.720Z,45.99
2022-08-07T04:52:40.382Z,46.28
2022-08-07T04:58:12.162Z,45.85
2022-08-07T04:58:31.499Z,46.90
2022-08-07T05:01:30.288Z,46.90
2022-08-07T05:04:18.016Z,47.04
2022-08-07T05:07:20.292Z,47.28
2022-08-07T05:10:01.294Z,47.81
2022-08-07T05:14:45.705Z,47.61
2022-08-07T05:15:53.918Z,48.33
2022-08-07T05:18:37.033Z,48.21
2022-08-07T05:21:10.064Z,48.85
2022-08-07T05:23:52.352Z,49.00
2022-08-07T05:26:23.717Z,49.19
2022-08-07T05:29:04.608Z,49.24
2022-08-07T05:31:38.908Z,49.24
2022-08-07T05:34:16.214Z,49.49
2022-08-07T05:36:52.967Z,49.42
2022-08-07T05:40:06.773Z,49.77
2022-08-07T05:42:33.287Z,49.94
2022-08-07T05:45:14.424Z,50.15
2022-08-07T05:48:01.090Z,50.20
2022-08-07T05:50:39.336Z,50.46
2022-08-07T05:54:09.508Z,50.63
2022-08-07T05:56:03.263Z,50.63
2022-08-07T05:58:40.941Z,50.65
2022-08-07T06:01:18.701Z,50.93
2022-08-07T06:03:58.827Z,51.03
2022-08-07T06:06:35.762Z,51.22
2022-08-07T06:09:06.889Z,50.93
2022-08-07T06:11:39.951Z,50.94
2022-08-07T06:14:12.047Z,51.03
2022-08-07T06:16:56.408Z,51.30
2022-08-07T06:19:52.391Z,51.51
2022-08-07T06:22:24.027Z,51.60
2022-08-07T06:25:10.305Z,51.74
2022-08-07T06:28:00.007Z,51.87
2022-08-07T06:30:36.115Z,52.10
2022-08-07T06:33:16.129Z,51.96
2022-08-07T06:36:06.264Z,51.84
2022-08-07T06:38:35.167Z,51.77
2022-08-07T06:41:13.134Z,51.86
2022-08-07T06:43:59.406Z,51.79
2022-08-07T06:46:35.510Z,51.99
2022-08-07T06:49:05.638Z,52.04
2022-08-07T06:51:49.540Z,52.03
2022-08-07T06:55:32.194Z,51.93
2022-08-07T06:57:13.829Z,52.19
2022-08-07T07:00:12.200Z,52.32
2022-08-07T07:02:48.568Z,52.18
2022-08-07T07:06:03.730Z,52.21
2022-08-07T07:08:12.289Z,52.21
2022-08-07T07:10:47.494Z,52.18
2022-08-07T07:13:56.727Z,52.12
2022-08-07T07:16:22.390Z,51.22
2022-08-07T07:19:34.123Z,51.05
2022-08-07T07:22:04.812Z,51.09
2022-08-07T07:24:43.148Z,51.04
2022-08-07T07:27:28.011Z,50.90
2022-08-07T07:30:09.814Z,50.66
2022-08-07T07:32:42.667Z,50.30
2022-08-07T07:35:12.661Z,50.12
2022-08-07T07:37:56.169Z,49.90
2022-08-07T07:40:32.548Z,49.63
2022-08-07T07:43:15.168Z,49.17
2022-08-07T07:46:50.447Z,48.61
2022-08-07T07:48:36.692Z,48.92
2022-08-07T07:51:08.032Z,47.63
2022-08-07T07:53:48.163Z,47.27
2022-08-07T07:56:30.103Z,46.74
2022-08-07T07:59:05.862Z,46.69
2022-08-07T08:02:02.947Z,46.20
2022-08-07T08:04:27.786Z,46.04
2022-08-07T08:06:56.401Z,45.84
2022-08-07T08:09:30.020Z,45.69
2022-08-07T08:12:02.413Z,45.56
2022-08-07T08:14:34.508Z,45.09
2022-08-07T08:17:55.497Z,45.06
2022-08-07T08:20:17.859Z,45.22
2022-08-07T08:23:12.286Z,44.93
2022-08-07T08:26:07.025Z,44.60
2022-08-07T08:28:43.472Z,44.54
2022-08-07T08:31:22.963Z,44.54
2022-08-07T08:34:12.407Z,44.20
2022-08-07T08:36:41.190Z,44.01
2022-08-07T08:39:15.361Z,44.02
2022-08-07T08:42:06.455Z,44.55
2022-08-07T08:45:04.310Z,44.46
2022-08-07T08:47:47.284Z,44.23
2022-08-07T08:50:35.242Z,43.67
2022-08-07T08:53:30.739Z,43.65
2022-08-07T08:56:03.355Z,43.12
2022-08-07T08:58:40.879Z,43.00
2022-08-07T09:01:30.028Z,42.92
2022-08-07T09:04:28.656Z,42.76
2022-08-07T09:07:04.059Z,42.06
2022-08-07T09:09:47.380Z,42.07
2022-08-07T09:12:53.479Z,41.79
2022-08-07T09:16:23.468Z,41.44
2022-08-07T09:18:36.867Z,41.46
2022-08-07T09:22:09.948Z,41.25
2022-08-07T09:24:58.708Z,41.80
2022-08-07T09:28:00.585Z,40.89
2022-08-07T09:31:08.569Z,40.71
2022-08-07T09:33:57.323Z,40.34
2022-08-07T09:36:49.812Z,40.25
2022-08-07T09:39:54.869Z,39.71
2022-08-07T09:42:41.135Z,39.66
2022-08-07T09:47:25.943Z,39.09
2022-08-07T09:48:30.148Z,39.15
2022-08-07T09:51:04.189Z,38.79
2022-08-07T09:53:50.118Z,38.52
2022-08-07T09:56:53.929Z,38.68
2022-08-07T10:00:01.007Z,38.29
2022-08-07T10:04:05.372Z,38.50
2022-08-07T10:06:42.679Z,38.42
2022-08-07T10:09:59.088Z,38.39
2022-08-07T10:13:03.619Z,38.36
2022-08-07T10:15:49.192Z,38.16
2022-08-07T10:18:20.524Z,37.69
2022-08-07T10:21:50.567Z,37.49
2022-08-07T10:24:10.162Z,37.67
2022-08-07T10:26:54.458Z,37.37
2022-08-07T10:29:43.338Z,36.92
2022-08-07T10:32:52.849Z,36.99
2022-08-07T10:35:55.159Z,36.68
2022-08-07T10:38:41.967Z,36.51
2022-08-07T10:41:53.812Z,36.63
2022-08-07T10:45:00.085Z,36.57
2022-08-07T10:47:52.797Z,36.00
2022-08-07T10:50:26.605Z,35.98
2022-08-07T10:53:22.587Z,36.09
2022-08-07T10:56:21.035Z,36.12
2022-08-07T10:59:24.341Z,36.06
2022-08-07T11:02:12.526Z,35.74
2022-08-07T11:04:58.316Z,35.60
2022-08-07T11:07:59.609Z,35.82
2022-08-07T11:10:41.064Z,35.48
2022-08-07T11:14:42.449Z,35.66
2022-08-07T11:16:19.546Z,35.43
2022-08-07T11:18:54.723Z,35.17
2022-08-07T11:21:42.966Z,35.35
2022-08-07T11:24:13.454Z,34.97
2022-08-07T11:27:01.218Z,35.02
2022-08-07T11:30:18.673Z,35.08
2022-08-07T11:32:46.520Z,34.50
2022-08-07T11:35:26.820Z,34.49
2022-08-07T11:38:42.769Z,34.59
2022-08-07T11:41:59.995Z,34.25
2022-08-07T11:44:37.925Z,34.36
2022-08-07T11:47:56.238Z,34.31
2022-08-07T11:50:57.298Z,34.09
2022-08-07T11:53:25.523Z,33.85
2022-08-07T11:56:27.287Z,34.11
2022-08-07T12:00:11.262Z,34.07
2022-08-07T12:02:34.337Z,34.14
2022-08-07T12:05:47.328Z,34.17
2022-08-07T12:08:31.813Z,33.87
2022-08-07T12:11:22.878Z,33.93
2022-08-07T12:14:02.096Z,33.90
2022-08-07T12:16:34.554Z,33.74
2022-08-07T12:19:21.640Z,33.62
2022-08-07T12:22:39.467Z,33.71
2022-08-07T12:26:05.351Z,33.66
2022-08-07T12:28:53.136Z,33.79
2022-08-07T12:32:01.645Z,33.78
2022-08-07T12:34:39.113Z,33.44
2022-08-07T12:37:16.440Z,33.36
2022-08-07T12:39:52.703Z,33.25
2022-08-07T12:42:27.628Z,33.37
2022-08-07T12:45:05.711Z,33.26
2022-08-07T12:47:56.059Z,33.44
2022-08-07T12:50:55.974Z,33.18
2022-08-07T12:54:37.479Z,33.42
2022-08-07T12:56:51.492Z,33.17
2022-08-07T12:59:53.913Z,33.27
2022-08-07T13:02:42.298Z,33.05
2022-08-07T13:06:03.087Z,33.18
2022-08-07T13:08:57.833Z,32.94
2022-08-07T13:12:03.544Z,32.91
2022-08-07T13:14:52.915Z,33.06
2022-08-07T13:17:39.943Z,32.91
2022-08-07T13:20:46.701Z,32.91
2022-08-07T13:24:00.661Z,32.79
2022-08-07T13:26:26.497Z,32.65
2022-08-07T13:29:04.436Z,32.62
2022-08-07T13:31:46.283Z,32.55
2022-08-07T13:35:12.849Z,32.55
2022-08-07T13:38:02.873Z,32.54
2022-08-07T13:41:17.106Z,32.51
2022-08-07T13:43:52.542Z,32.04
2022-08-07T13:46:33.360Z,32.11
2022-08-07T13:49:04.405Z,31.86
2022-08-07T13:52:05.294Z,31.81
2022-08-07T13:54:33.412Z,31.85
2022-08-07T13:57:05.108Z,31.64
2022-08-07T13:59:39.654Z,31.54
2022-08-07T14:02:13.105Z,31.54
2022-08-07T14:05:20.920Z,31.84
2022-08-07T14:07:59.672Z,31.46
2022-08-07T14:10:42.155Z,31.56
2022-08-07T14:13:18.015Z,31.37
2022-08-07T14:15:56.851Z,31.35
2022-08-07T14:18:39.015Z,31.37
2022-08-07T14:22:04.181Z,31.46
2022-08-07T14:24:27.152Z,31.38
2022-08-07T14:27:00.328Z,31.19
2022-08-07T14:30:05.759Z,31.11
2022-08-07T14:32:24.906Z,30.94
2022-08-07T14:34:55.487Z,30.92
2022-08-07T14:37:36.435Z,30.81
2022-08-07T14:45:59.763Z,30.77
2022-08-07T14:48:37.493Z,30.91
2022-08-07T14:54:30.129Z,30.69
2022-08-07T14:56:50.695Z,30.63
2022-08-07T15:00:04.588Z,30.64
2022-08-07T15:02:31.777Z,30.59
2022-08-07T15:05:03.703Z,30.43
2022-08-07T15:07:47.615Z,30.29
2022-08-07T15:10:25.100Z,30.33
2022-08-07T15:13:06.276Z,30.37
2022-08-07T15:15:53.684Z,30.25
2022-08-07T15:18:33.816Z,30.20
2022-08-07T15:21:44.888Z,30.22
2022-08-07T15:25:15.650Z,30.15
2022-08-07T15:26:57.838Z,30.10
2022-08-07T15:30:06.525Z,30.13
2022-08-07T15:32:39.021Z,29.93
2022-08-07T15:35:16.863Z,29.99
2022-08-07T15:38:17.829Z,29.89
2022-08-07T15:41:00.144Z,29.70
2022-08-07T15:43:53.028Z,29.61
2022-08-07T15:46:31.699Z,29.81
2022-08-07T15:49:19.508Z,29.59
2022-08-07T15:54:39.718Z,29.50
2022-08-07T15:57:28.358Z,29.42
2022-08-07T16:00:04.306Z,29.31
2022-08-07T16:02:40.508Z,29.90
2022-08-07T16:05:15.204Z,29.39
2022-08-07T16:08:30.265Z,29.21
2022-08-07T16:10:41.773Z,29.14
2022-08-07T16:13:58.524Z,29.33
2022-08-07T16:16:49.373Z,29.13
2022-08-07T16:19:59.822Z,29.22
2022-08-07T16:22:36.345Z,29.00
2022-08-07T16:25:52.414Z,29.18
2022-08-07T16:29:18.882Z,28.77
2022-08-07T16:31:51.239Z,29.02
2022-08-07T16:34:23.847Z,28.79
2022-08-07T16:38:03.036Z,28.88
2022-08-07T16:40:28.959Z,28.86
2022-08-07T16:44:03.674Z,28.79
2022-08-07T16:50:28.507Z,28.68
2022-08-07T16:54:02.907Z,28.64
2022-08-07T16:56:32.319Z,28.60
2022-08-07T16:59:18.927Z,28.37
2022-08-07T17:02:05.595Z,28.38
2022-08-07T17:06:01.577Z,28.36
2022-08-07T17:08:02.099Z,28.08
2022-08-07T17:10:54.734Z,27.89
2022-08-07T17:14:19.529Z,28.29
2022-08-07T17:16:58.070Z,27.98
2022-08-07T17:20:03.061Z,28.13
2022-08-07T17:22:56.728Z,28.02
2022-08-07T17:25:47.184Z,27.84
2022-08-07T17:28:31.559Z,27.86
2022-08-07T17:31:16.675Z,27.90
2022-08-07T17:34:32.813Z,27.82
2022-08-07T17:37:08.936Z,27.69
2022-08-07T17:40:03.412Z,27.79
2022-08-07T17:42:36.245Z,27.46
2022-08-07T17:45:57.464Z,27.80
2022-08-07T17:48:34.485Z,27.55
2022-08-07T17:51:23.089Z,27.65
2022-08-07T17:54:39.632Z,27.60
2022-08-07T17:57:21.493Z,27.40
2022-08-07T18:00:00.550Z,27.39
2022-08-07T18:02:36.827Z,27.17
2022-08-07T18:05:21.974Z,27.24
2022-08-07T18:08:03.734Z,27.39
2022-08-07T18:11:53.660Z,27.45
2022-08-07T18:13:48.730Z,27.19
2022-08-07T18:16:37.166Z,27.28
2022-08-07T18:21:10.312Z,27.36
2022-08-07T18:22:49.097Z,27.23
2022-08-07T18:25:40.737Z,27.19
2022-08-07T18:28:35.283Z,27.21
2022-08-07T18:31:50.363Z,27.33
2022-08-07T18:34:40.794Z,27.10
2022-08-07T18:38:56.625Z,27.28
2022-08-07T18:41:07.963Z,27.16
2022-08-07T18:43:57.575Z,26.97
2022-08-07T18:46:51.581Z,27.17
2022-08-07T18:50:31.092Z,27.10
2022-08-07T18:53:12.578Z,26.93
2022-08-07T18:56:15.033Z,26.94
2022-08-07T18:58:51.633Z,26.78
2022-08-07T19:02:20.166Z,26.73
2022-08-07T19:04:39.784Z,26.56
2022-08-07T19:07:52.972Z,26.76
2022-08-07T19:10:49.968Z,26.73
2022-08-07T19:13:44.344Z,26.83
2022-08-07T19:17:06.041Z,26.67
2022-08-07T19:19:48.832Z,26.87
2022-08-07T19:22:32.348Z,26.66
2022-08-07T19:25:06.778Z,26.47
2022-08-07T19:28:29.593Z,26.47
2022-08-07T19:31:00.216Z,26.49
2022-08-07T19:33:33.625Z,26.37
2022-08-07T19:36:04.368Z,26.32
2022-08-07T19:38:52.559Z,26.33
2022-08-07T19:41:44.345Z,26.32
2022-08-07T19:44:21.275Z,26.31
2022-08-07T19:46:58.018Z,26.29
2022-08-07T19:49:57.368Z,26.21
2022-08-07T19:52:27.790Z,26.26
2022-08-07T19:54:58.404Z,26.13
2022-08-07T19:58:01.299Z,26.43
2022-08-07T20:00:39.303Z,26.12
2022-08-07T20:03:33.554Z,26.10
2022-08-07T20:06:06.126Z,26.03
2022-08-07T20:08:37.978Z,26.03
2022-08-07T20:11:10.724Z,25.96
2022-08-07T20:13:56.638Z,26.02
2022-08-07T20:16:35.125Z,25.92
2022-08-07T20:19:11.111Z,25.99
2022-08-07T20:21:47.181Z,25.93
2022-08-07T20:24:22.130Z,25.90
2022-08-07T20:26:54.773Z,25.82
2022-08-07T20:29:49.234Z,25.81
2022-08-07T20:32:39.779Z,25.94
2022-08-07T20:35:12.955Z,25.78
2022-08-07T20:37:59.789Z,25.86
2022-08-07T20:40:37.648Z,25.68
2022-08-07T20:43:19.520Z,25.67
2022-08-07T20:46:28.848Z,25.69
2022-08-07T20:49:54.694Z,25.62
2022-08-07T20:51:35.945Z,25.59
2022-08-07T20:54:15.160Z,25.57
2022-08-07T20:57:04.892Z,25.67
2022-08-07T21:00:07.319Z,25.63
2022-08-07T21:02:53.836Z,25.60
2022-08-07T21:05:47.841Z,25.64
2022-08-07T21:08:15.519Z,25.69
2022-08-07T21:10:44.963Z,25.67
2022-08-07T21:13:19.393Z,25.78
2022-08-07T21:16:00.152Z,25.70
2022-08-07T21:18:33.929Z,25.71
2022-08-07T21:21:01.904Z,26.15
2022-08-07T21:23:50.423Z,25.91
2022-08-07T21:26:27.414Z,25.79
2022-08-07T21:29:06.348Z,25.74
2022-08-07T21:32:47.763Z,25.76
2022-08-07T21:34:59.520Z,25.94
2022-08-07T21:37:58.346Z,25.87
2022-08-07T21:40:59.255Z,25.98
2022-08-07T21:44:28.362Z,26.04
2022-08-07T21:47:03.277Z,25.85
2022-08-07T21:50:01.057Z,25.95
2022-08-07T21:52:43.953Z,25.85
2022-08-07T21:55:28.161Z,25.86
2022-08-07T21:58:08.413Z,25.81
2022-08-07T22:00:47.581Z,25.71
2022-08-07T22:03:42.921Z,25.86
2022-08-07T22:06:30.285Z,25.58
2022-08-07T22:09:31.504Z,25.85
2022-08-07T22:12:16.152Z,25.70
2022-08-07T22:14:59.838Z,25.61
2022-08-07T22:17:36.107Z,25.54
2022-08-07T22:20:30.413Z,25.71
2022-08-07T22:23:21.519Z,25.58
2022-08-07T22:26:12.132Z,25.58
2022-08-07T22:29:09.017Z,25.65
2022-08-07T22:32:05.686Z,25.87
2022-08-07T22:34:53.122Z,25.33
2022-08-07T22:38:01.967Z,25.57
2022-08-07T22:40:45.011Z,25.38
2022-08-07T22:43:18.087Z,25.25
2022-08-07T22:46:40.725Z,25.27
2022-08-07T22:49:19.577Z,25.40
2022-08-07T22:52:07.986Z,25.39
2022-08-07T22:55:23.139Z,25.39
2022-08-07T22:58:25.013Z,25.39
2022-08-07T23:01:07.264Z,25.07
2022-08-07T23:04:00.221Z,25.37
2022-08-07T23:07:01.563Z,25.35
2022-08-07T23:10:04.036Z,25.20
2022-08-07T23:12:39.288Z,25.06
2022-08-07T23:16:04.253Z,25.07
2022-08-07T23:18:32.048Z,25.27
2022-08-07T23:21:29.872Z,25.19
2022-08-07T23:24:06.329Z,25.01
2022-08-07T23:27:07.883Z,25.31
2022-08-07T23:30:38.934Z,24.97
2022-08-07T23:34:35.023Z,25.29
2022-08-07T23:36:07.080Z,25.07
2022-08-07T23:38:47.100Z,25.12
2022-08-07T23:42:01.398Z,25.26
2022-08-07T23:44:49.378Z,25.26
2022-08-07T23:47:46.422Z,25.20
2022-08-07T23:50:34.933Z,25.11
2022-08-07T23:53:15.311Z,25.09
2022-08-07T23:56:11.765Z,25.21
2022-08-07T23:59:10.567Z,25.17
